Terminal Aerodrome Forecast
Issued by NWS

Home | Current Version | Previous Version | Text Only | Print | Product List | Glossary On
Versions: 1 2 3 4 5 6 7 8 9 10 11 12 13 14 15 16
553
FTUS43 KICT 181120
TAFSLN
TAF
KSLN 181120Z 1812/1912 34025G33KT P6SM VCSH OVC015
     FM181400 33026G35KT P6SM OVC040
     FM181700 33024G32KT P6SM SCT150
     FM182300 33016G24KT P6SM SKC
     FM190000 32012KT P6SM FEW250
     FM190200 31008KT P6SM SKC=

USA.gov is the U.S. government's official web portal to all federal, state and local government web resources and services.